Estación Meteorológica Peña el Pijo (Robertgarden) [ 11/16/19 02:19:48 CET ]

Fecha Hora Presion(HPa) Temp (°C) Humedad % Rocio (°C) Viento ( m/s) Direccion Lluvia 1Hora(mm) Lluvia 24H(mm) LLuvia Total(mm)
2019-Mar-21 01:01:41 1014.700 4.6 74 0.3         184.40
2019-Mar-21 02:02:07 1014.300 4.1 76 0.2         184.40
2019-Mar-21 03:02:14 1014.100 5.3 79 1.9         184.40
2019-Mar-21 04:03:10 1013.500 6.4 81 3.4         184.40
2019-Mar-21 05:01:51 1013.400 6.4 82 3.5         184.40
2019-Mar-21 06:01:54 1013.500 7.4 83 4.7         184.40
2019-Mar-21 07:01:51 1013.900 8.3 84 5.8         184.40
2019-Mar-21 08:01:47 1014.400 6.1 84 3.6         184.40
2019-Mar-21 09:01:46 1014.800 4.3 83 1.7         184.40
2019-Mar-21 10:01:45 1014.800 7.8 64 1.4         184.40
2019-Mar-21 11:02:08 1014.600 8.5 51 -1.1 4.9 ENE     184.40
2019-Mar-21 12:01:54 1014.500 11.2 39 -2.3 3.1 NNE     184.40
2019-Mar-21 13:01:38 1013.800 11.1 39 -2.4         184.40
2019-Mar-21 14:01:35 1013.300 11.1 38 -2.8 3.0 NNE     184.40
2019-Mar-21 15:01:47 1012.900 11.8 36 -2.5         184.40
2019-Mar-21 16:01:48 1012.400 12.2 34 -3.3 1.8 N     184.40
2019-Mar-21 17:01:38 1012.300 11.5 33 -4.3         184.40
2019-Mar-21 18:01:39 1012.400 10.5 37 -3.7         184.40
2019-Mar-21 19:01:51 1012.900 8.7 43 -3.3         184.40
2019-Mar-21 20:01:37 1013.400 7.5 48 -2.8         184.40
2019-Mar-21 21:01:42 1014.200 6.3 52 -2.8         184.40
2019-Mar-21 22:01:45 1014.600 4.6 56 -3.5         184.40
2019-Mar-21 23:01:49 1014.600 4.4 62 -2.3         184.40

Temperatura Máxima:12°    Temperatura Mínima:
Presión Máxima:1014.800 Hpa    Presión Mínima:1012.300 Hpa


Volver